Orno Kurir — SGBP — position and weather

sailwx.info

Track history (hours):
 
Tides and Currents Weather Stations Pressure Air Temp Water Temp Dewpoint Dewpoint Depression Visibility Wind Speed Wind Dir Waves Ship Positions

Orno Kurir

Last reported at 2015-Mar-04 19:11 UTC. Time now 2015-Mar-05 08:05 UTC.
Position N 59°05' E 018°25'.

Length 48 m; draft 3.5 m.

Type: Passenger vessel. MMSI: 265549230.

Date/timePositionNaut miles runAvg speedWind from/ knotsBaromVisibWave heightAir tempDewpointWater temp
2015-Mar-04 19:11N 59°05' E 018°25'2 2.7
2015-Mar-04 18:25N 59°07' E 018°23'1 0.8
2015-Mar-04 17:28N 59°08' E 018°24'0 0.0
2015-Mar-04 16:32N 59°08' E 018°24'0 0.0
2015-Mar-04 15:30N 59°08' E 018°24'0 0.0
2015-Mar-04 14:31N 59°08' E 018°24'0 0.0
2015-Mar-04 11:27N 59°08' E 018°24'0 0.0
2015-Mar-04 07:27N 59°08' E 018°24'0 0.0
2015-Mar-04 06:29N 59°08' E 018°24'0 0.0
2015-Mar-04 05:29N 59°08' E 018°24'2 0.3
2015-Mar-03 20:24N 59°05' E 018°25'2 0.5
2015-Mar-03 17:15N 59°06' E 018°22'2 2.0
2015-Mar-03 16:24N 59°08' E 018°24'0 0.1
2015-Mar-03 15:26N 59°08' E 018°24'0 0.1
2015-Mar-03 14:24N 59°08' E 018°24'0 0.0
2015-Mar-03 11:29N 59°08' E 018°24'0 0.0
2015-Mar-03 07:30N 59°08' E 018°24'0 0.0
2015-Mar-03 06:29N 59°08' E 018°24'0 0.0
2015-Mar-03 05:28N 59°08' E 018°24'2 0.2
2015-Mar-02 19:11N 59°06' E 018°22'2 2.6
2015-Mar-02 18:27N 59°07' E 018°23'1 0.7
2015-Mar-02 17:29N 59°08' E 018°24'0 0.0
2015-Mar-02 16:29N 59°08' E 018°24'0 0.0
2015-Mar-02 15:30N 59°08' E 018°24'0 0.0
2015-Mar-02 14:30N 59°08' E 018°24'0 0.0
2015-Mar-02 11:29N 59°08' E 018°24'0 0.0
2015-Mar-02 07:29N 59°08' E 018°24'0 0.1
2015-Mar-02 06:31N 59°08' E 018°24'0 0.0
2015-Mar-02 05:28N 59°08' E 018°24'0 0.0
2015-Mar-01 16:28N 59°08' E 018°24'2 1.6
2015-Mar-01 15:04N 59°06' E 018°25'1 1.6
2015-Mar-01 14:13N 59°07' E 018°26'1 1.8
2015-Mar-01 13:25N 59°08' E 018°24'0 0.0
2015-Mar-01 12:24N 59°08' E 018°24'1 0.3
2015-Mar-01 08:09N 59°07' E 018°26'1 0.1
2015-Feb-28 16:33N 59°08' E 018°24'1 0.6
2015-Feb-28 15:22N 59°07' E 018°23'1 0.2
2015-Feb-28 11:33N 59°08' E 018°24'1 0.3
2015-Feb-28 09:22N 59°07' E 018°23'1 0.6
2015-Feb-28 08:31N 59°08' E 018°24'2 1.4
2015-Feb-28 07:14N 59°06' E 018°22'2 0.1
2015-Feb-27 14:10N 59°07' E 018°26'1 0.5
2015-Feb-27 11:27N 59°08' E 018°24'1 1.5
2015-Feb-27 10:29N 59°07' E 018°26'1 0.5
2015-Feb-27 07:29N 59°08' E 018°24'2 0.2
2015-Feb-26 20:22N 59°05' E 018°25'0 0.1
2015-Feb-26 19:31N 59°05' E 018°25'1 0.3
2015-Feb-26 15:09N 59°07' E 018°26'0 0.0
2015-Feb-26 14:09N 59°07' E 018°26'0 0.0
2015-Feb-26 07:13N 59°07' E 018°26'2 0.1
2015-Feb-25 18:32N 59°07' E 018°23'2 0.1
2015-Feb-25 06:10N 59°07' E 018°26'1 0.1
2015-Feb-24 20:21N 59°06' E 018°25'1 0.4
2015-Feb-24 17:10N 59°07' E 018°26'0 0.0
2015-Feb-24 16:10N 59°07' E 018°26'0 0.0
2015-Feb-24 15:09N 59°07' E 018°26'0 0.0
2015-Feb-24 14:08N 59°07' E 018°26'2 0.8
2015-Feb-24 12:16N 59°05' E 018°25'2 0.9
2015-Feb-24 10:30N 59°07' E 018°26'1 0.5
2015-Feb-24 07:30N 59°08' E 018°24'0 0.0
2015-Feb-24 06:25N 59°08' E 018°24'0 0.0
2015-Feb-24 05:29N 59°08' E 018°24'2 0.2
2015-Feb-23 19:08N 59°06' E 018°25'2 2.0
2015-Feb-23 18:20N 59°06' E 018°22'0 0.0
2015-Feb-23 17:15N 59°06' E 018°22'2 0.7
2015-Feb-23 14:10N 59°07' E 018°26'1 0.5
2015-Feb-23 11:15N 59°08' E 018°24'1 0.3
2015-Feb-23 07:09N 59°07' E 018°26'1 2.1
2015-Feb-23 06:28N 59°08' E 018°24'0 0.0
2015-Feb-23 05:24N 59°08' E 018°24'  
Track history (hours):
 
Tides and Currents Weather Stations Pressure Air Temp Water Temp Dewpoint Dewpoint Depression Visibility Wind Speed Wind Dir Waves Ship Positions

Orno Kurir

Last reported at 2015-Mar-04 19:11 UTC. Time now 2015-Mar-05 08:05 UTC.
Position N 59°05' E 018°25'.

Length 48 m; draft 3.5 m.

Type: Passenger vessel. MMSI: 265549230.

Date/timePositionNaut miles runAvg speedWind from/ knotsBaromVisibWave heightAir tempDewpointWater temp
2015-Mar-04 19:11N 59°05' E 018°25'2 2.7
2015-Mar-04 18:25N 59°07' E 018°23'1 0.8
2015-Mar-04 17:28N 59°08' E 018°24'0 0.0
2015-Mar-04 16:32N 59°08' E 018°24'0 0.0
2015-Mar-04 15:30N 59°08' E 018°24'0 0.0
2015-Mar-04 14:31N 59°08' E 018°24'0 0.0
2015-Mar-04 11:27N 59°08' E 018°24'0 0.0
2015-Mar-04 07:27N 59°08' E 018°24'0 0.0
2015-Mar-04 06:29N 59°08' E 018°24'0 0.0
2015-Mar-04 05:29N 59°08' E 018°24'2 0.3
2015-Mar-03 20:24N 59°05' E 018°25'2 0.5
2015-Mar-03 17:15N 59°06' E 018°22'2 2.0
2015-Mar-03 16:24N 59°08' E 018°24'0 0.1
2015-Mar-03 15:26N 59°08' E 018°24'0 0.1
2015-Mar-03 14:24N 59°08' E 018°24'0 0.0
2015-Mar-03 11:29N 59°08' E 018°24'0 0.0
2015-Mar-03 07:30N 59°08' E 018°24'0 0.0
2015-Mar-03 06:29N 59°08' E 018°24'0 0.0
2015-Mar-03 05:28N 59°08' E 018°24'2 0.2
2015-Mar-02 19:11N 59°06' E 018°22'2 2.6
2015-Mar-02 18:27N 59°07' E 018°23'1 0.7
2015-Mar-02 17:29N 59°08' E 018°24'0 0.0
2015-Mar-02 16:29N 59°08' E 018°24'0 0.0
2015-Mar-02 15:30N 59°08' E 018°24'0 0.0
2015-Mar-02 14:30N 59°08' E 018°24'0 0.0
2015-Mar-02 11:29N 59°08' E 018°24'0 0.0
2015-Mar-02 07:29N 59°08' E 018°24'0 0.1
2015-Mar-02 06:31N 59°08' E 018°24'0 0.0
2015-Mar-02 05:28N 59°08' E 018°24'0 0.0
2015-Mar-01 16:28N 59°08' E 018°24'2 1.6
2015-Mar-01 15:04N 59°06' E 018°25'1 1.6
2015-Mar-01 14:13N 59°07' E 018°26'1 1.8
2015-Mar-01 13:25N 59°08' E 018°24'0 0.0
2015-Mar-01 12:24N 59°08' E 018°24'1 0.3
2015-Mar-01 08:09N 59°07' E 018°26'1 0.1
2015-Feb-28 16:33N 59°08' E 018°24'1 0.6
2015-Feb-28 15:22N 59°07' E 018°23'1 0.2
2015-Feb-28 11:33N 59°08' E 018°24'1 0.3
2015-Feb-28 09:22N 59°07' E 018°23'1 0.6
2015-Feb-28 08:31N 59°08' E 018°24'2 1.4
2015-Feb-28 07:14N 59°06' E 018°22'2 0.1
2015-Feb-27 14:10N 59°07' E 018°26'1 0.5
2015-Feb-27 11:27N 59°08' E 018°24'1 1.5
2015-Feb-27 10:29N 59°07' E 018°26'1 0.5
2015-Feb-27 07:29N 59°08' E 018°24'2 0.2
2015-Feb-26 20:22N 59°05' E 018°25'0 0.1
2015-Feb-26 19:31N 59°05' E 018°25'1 0.3
2015-Feb-26 15:09N 59°07' E 018°26'0 0.0
2015-Feb-26 14:09N 59°07' E 018°26'0 0.0
2015-Feb-26 07:13N 59°07' E 018°26'2 0.1
2015-Feb-25 18:32N 59°07' E 018°23'2 0.1
2015-Feb-25 06:10N 59°07' E 018°26'1 0.1
2015-Feb-24 20:21N 59°06' E 018°25'1 0.4
2015-Feb-24 17:10N 59°07' E 018°26'0 0.0
2015-Feb-24 16:10N 59°07' E 018°26'0 0.0
2015-Feb-24 15:09N 59°07' E 018°26'0 0.0
2015-Feb-24 14:08N 59°07' E 018°26'2 0.8
2015-Feb-24 12:16N 59°05' E 018°25'2 0.9
2015-Feb-24 10:30N 59°07' E 018°26'1 0.5
2015-Feb-24 07:30N 59°08' E 018°24'0 0.0
2015-Feb-24 06:25N 59°08' E 018°24'0 0.0
2015-Feb-24 05:29N 59°08' E 018°24'2 0.2
2015-Feb-23 19:08N 59°06' E 018°25'2 2.0
2015-Feb-23 18:20N 59°06' E 018°22'0 0.0
2015-Feb-23 17:15N 59°06' E 018°22'2 0.7
2015-Feb-23 14:10N 59°07' E 018°26'1 0.5
2015-Feb-23 11:15N 59°08' E 018°24'1 0.3
2015-Feb-23 07:09N 59°07' E 018°26'1 2.1
2015-Feb-23 06:28N 59°08' E 018°24'0 0.0
2015-Feb-23 05:24N 59°08' E 018°24'  

Dump ship's entire track history